createdAt,value
2018-05-07T00:01:09.199Z,64.30
2018-05-07T00:03:35.401Z,64.70
2018-05-07T00:06:02.594Z,65.50
2018-05-07T00:08:28.760Z,65.30
2018-05-07T00:10:56.812Z,66.50
2018-05-07T00:13:23.811Z,67.80
2018-05-07T00:15:50.088Z,67.70
2018-05-07T00:18:16.301Z,67.50
2018-05-07T00:20:42.547Z,66.80
2018-05-07T00:23:08.811Z,66.50
2018-05-07T00:25:35.100Z,67.10
2018-05-07T00:28:01.388Z,68.00
2018-05-07T00:30:27.682Z,67.30
2018-05-07T00:32:53.958Z,67.20
2018-05-07T00:35:20.196Z,67.70
2018-05-07T00:37:46.432Z,67.60
2018-05-07T00:40:12.686Z,67.50
2018-05-07T00:42:38.887Z,67.90
2018-05-07T00:45:05.289Z,68.00
2018-05-07T00:47:31.887Z,67.50
2018-05-07T00:49:58.124Z,68.20
2018-05-07T00:52:24.383Z,68.40
2018-05-07T00:55:03.052Z,69.10
2018-05-07T00:57:29.365Z,69.50
2018-05-07T00:59:55.640Z,69.50
2018-05-07T01:02:22.631Z,69.30
2018-05-07T01:04:48.840Z,69.30
2018-05-07T01:07:15.113Z,70.10
2018-05-07T01:09:41.460Z,69.70
2018-05-07T01:12:07.720Z,70.80
2018-05-07T01:14:33.966Z,70.70
2018-05-07T01:17:00.341Z,70.80
2018-05-07T01:19:27.333Z,71.40
2018-05-07T01:21:53.541Z,71.50
2018-05-07T01:24:19.822Z,71.40
2018-05-07T01:26:46.060Z,72.10
2018-05-07T01:29:12.280Z,72.00
2018-05-07T01:31:38.521Z,71.80
2018-05-07T01:34:05.560Z,72.30
2018-05-07T01:36:31.881Z,72.30
2018-05-07T01:38:58.111Z,73.20
2018-05-07T01:41:24.379Z,72.50
2018-05-07T01:43:50.633Z,73.40
2018-05-07T01:46:16.866Z,73.30
2018-05-07T01:48:43.172Z,74.50
2018-05-07T01:51:09.419Z,73.80
2018-05-07T01:53:36.676Z,73.30
2018-05-07T01:56:02.947Z,73.20
2018-05-07T01:58:29.208Z,74.20
2018-05-07T02:00:56.167Z,75.50
2018-05-07T02:03:22.698Z,75.50
2018-05-07T02:05:49.764Z,75.40
2018-05-07T02:08:16.783Z,75.90
2018-05-07T02:10:44.814Z,75.90
2018-05-07T02:13:11.824Z,76.00
2018-05-07T02:15:38.054Z,75.90
2018-05-07T02:18:04.361Z,75.90
2018-05-07T02:20:30.616Z,76.90
2018-05-07T02:22:56.851Z,76.60
2018-05-07T02:25:23.099Z,76.80
2018-05-07T02:27:49.390Z,77.30
2018-05-07T02:30:15.616Z,78.10
2018-05-07T02:32:41.857Z,78.50
2018-05-07T02:35:08.084Z,78.50
2018-05-07T02:37:34.345Z,78.70
2018-05-07T02:40:00.577Z,79.00
2018-05-07T02:42:26.824Z,79.50
2018-05-07T02:44:53.955Z,79.90
2018-05-07T02:47:20.481Z,79.90
2018-05-07T02:49:47.469Z,80.20
2018-05-07T02:52:13.704Z,80.20
2018-05-07T02:54:40.131Z,80.30
2018-05-07T02:57:07.085Z,80.90
2018-05-07T02:59:33.610Z,80.90
2018-05-07T03:01:59.989Z,81.00
2018-05-07T03:04:26.234Z,81.50
2018-05-07T03:06:52.595Z,81.60
2018-05-07T03:09:19.548Z,81.30
2018-05-07T03:11:45.807Z,81.30
2018-05-07T03:14:12.061Z,81.30
2018-05-07T03:16:38.263Z,81.20
2018-05-07T03:19:04.483Z,81.40
2018-05-07T03:21:30.817Z,82.00
2018-05-07T03:23:57.153Z,82.50
2018-05-07T03:26:23.542Z,82.90
2018-05-07T03:28:49.830Z,83.00
2018-05-07T03:31:16.076Z,82.20
2018-05-07T03:33:42.274Z,82.30
2018-05-07T03:36:08.513Z,82.30
2018-05-07T03:38:35.522Z,81.40
2018-05-07T03:41:01.870Z,82.10
2018-05-07T03:43:28.479Z,81.60
2018-05-07T03:45:54.761Z,81.50
2018-05-07T03:48:21.048Z,81.80
2018-05-07T03:50:47.319Z,81.80
2018-05-07T03:53:14.283Z,81.40
2018-05-07T03:55:40.680Z,81.40
2018-05-07T03:58:07.893Z,81.90
2018-05-07T04:00:35.607Z,81.80
2018-05-07T04:03:02.667Z,82.60
2018-05-07T04:05:29.017Z,82.60
2018-05-07T04:07:55.284Z,82.70
2018-05-07T04:10:21.557Z,82.60
2018-05-07T04:12:47.892Z,82.10
2018-05-07T04:15:14.149Z,81.70
2018-05-07T04:17:52.620Z,82.10
2018-05-07T04:20:31.321Z,81.80
2018-05-07T04:23:10.795Z,81.80
2018-05-07T04:25:37.812Z,81.30
2018-05-07T04:28:04.127Z,81.20
2018-05-07T04:30:31.153Z,81.30
2018-05-07T04:32:58.501Z,80.90
2018-05-07T04:35:24.791Z,80.90
2018-05-07T04:37:51.444Z,80.90
2018-05-07T04:40:17.738Z,81.50
2018-05-07T04:42:46.014Z,81.60
2018-05-07T04:45:13.166Z,81.50
2018-05-07T04:47:39.421Z,81.90
2018-05-07T04:50:05.713Z,81.30
2018-05-07T04:52:32.032Z,81.20
2018-05-07T04:54:58.268Z,81.30
2018-05-07T04:57:24.921Z,80.70
2018-05-07T04:59:51.928Z,81.10
2018-05-07T05:02:18.202Z,81.10
2018-05-07T05:04:44.494Z,81.00
2018-05-07T05:07:11.660Z,81.50
2018-05-07T05:09:38.736Z,81.60
2018-05-07T05:12:05.033Z,81.40
2018-05-07T05:14:31.493Z,81.50
2018-05-07T05:16:58.634Z,81.00
2018-05-07T05:19:25.863Z,81.20
2018-05-07T05:21:52.145Z,81.20
2018-05-07T05:24:18.480Z,80.60
2018-05-07T05:26:45.729Z,80.20
2018-05-07T05:29:12.784Z,80.40
2018-05-07T05:31:39.752Z,80.40
2018-05-07T05:34:05.988Z,80.40
2018-05-07T05:36:32.253Z,80.90
2018-05-07T05:38:58.556Z,81.20
2018-05-07T05:41:24.957Z,81.10
2018-05-07T05:43:52.207Z,80.40
2018-05-07T05:46:18.416Z,80.20
2018-05-07T05:48:44.778Z,80.00
2018-05-07T05:51:11.073Z,79.30
2018-05-07T05:53:38.064Z,81.10
2018-05-07T05:56:04.367Z,81.10
2018-05-07T05:58:31.459Z,79.50
2018-05-07T06:00:57.778Z,80.30
2018-05-07T06:03:24.009Z,78.80
2018-05-07T06:05:50.390Z,78.60
2018-05-07T06:08:16.612Z,78.10
2018-05-07T06:10:43.595Z,76.60
2018-05-07T06:13:09.833Z,76.50
2018-05-07T06:15:36.083Z,77.10
2018-05-07T06:18:02.353Z,73.90
2018-05-07T06:20:29.379Z,71.60
2018-05-07T06:22:55.715Z,71.60
2018-05-07T06:25:21.960Z,69.30
2018-05-07T06:27:48.928Z,67.40
2018-05-07T06:30:15.183Z,67.20
2018-05-07T06:32:41.390Z,65.50
2018-05-07T06:35:07.619Z,63.70
2018-05-07T06:37:33.829Z,60.90
2018-05-07T06:40:00.257Z,60.70
2018-05-07T06:42:26.718Z,59.50
2018-05-07T06:44:52.967Z,56.70
2018-05-07T06:47:19.511Z,57.90
2018-05-07T06:49:45.771Z,55.80
2018-05-07T06:52:12.107Z,56.20
2018-05-07T06:54:38.324Z,55.50
2018-05-07T06:57:06.481Z,51.80
2018-05-07T06:59:32.779Z,51.70
2018-05-07T07:02:00.066Z,49.10
2018-05-07T07:04:26.405Z,41.10
2018-05-07T07:06:53.403Z,33.50
2018-05-07T07:09:19.635Z,33.30
2018-05-07T07:11:45.848Z,30.00
2018-05-07T07:14:12.089Z,29.90
2018-05-07T07:16:38.441Z,28.80
2018-05-07T07:19:04.721Z,27.60
2018-05-07T07:21:30.953Z,26.20
2018-05-07T07:23:57.180Z,26.00
2018-05-07T07:26:23.410Z,25.30
2018-05-07T07:28:49.653Z,24.60
2018-05-07T07:31:15.862Z,24.40
2018-05-07T07:33:42.104Z,23.60
2018-05-07T07:36:08.393Z,23.40
2018-05-07T07:38:34.605Z,23.30
2018-05-07T07:41:00.833Z,23.50
2018-05-07T07:43:27.789Z,24.30
2018-05-07T07:45:54.757Z,24.70
2018-05-07T07:48:20.987Z,24.60
2018-05-07T07:50:47.228Z,24.30
2018-05-07T07:53:13.533Z,23.50
2018-05-07T07:55:39.830Z,23.90
2018-05-07T07:58:06.093Z,23.70
2018-05-07T08:00:32.341Z,24.30
2018-05-07T08:02:58.588Z,23.60
2018-05-07T08:05:24.797Z,23.40
2018-05-07T08:07:51.066Z,23.20
2018-05-07T08:10:17.321Z,23.60
2018-05-07T08:12:43.604Z,23.00
2018-05-07T08:15:09.833Z,22.30
2018-05-07T08:17:36.927Z,22.90
2018-05-07T08:20:03.228Z,22.90
2018-05-07T08:22:29.561Z,23.30
2018-05-07T08:24:55.772Z,22.90
2018-05-07T08:27:22.004Z,23.40
2018-05-07T08:29:48.344Z,22.90
2018-05-07T08:32:15.375Z,21.50
2018-05-07T08:34:41.683Z,21.50
2018-05-07T08:37:07.929Z,21.30
2018-05-07T08:39:34.124Z,21.50
2018-05-07T08:42:00.331Z,23.20
2018-05-07T08:44:26.599Z,21.60
2018-05-07T08:46:52.854Z,21.20
2018-05-07T08:49:19.179Z,22.20
2018-05-07T08:51:45.461Z,22.30
2018-05-07T08:54:11.716Z,21.50
2018-05-07T08:56:37.933Z,21.60
2018-05-07T08:59:04.159Z,21.40
2018-05-07T09:01:30.394Z,21.30
2018-05-07T09:03:56.636Z,21.30
2018-05-07T09:06:22.896Z,21.70
2018-05-07T09:08:49.174Z,21.40
2018-05-07T09:11:16.955Z,21.20
2018-05-07T09:13:43.341Z,21.20
2018-05-07T09:16:09.640Z,21.30
2018-05-07T09:18:35.872Z,21.70
2018-05-07T09:21:02.108Z,22.40
2018-05-07T09:23:28.348Z,22.60
2018-05-07T09:25:55.391Z,23.40
2018-05-07T09:28:21.786Z,23.40
2018-05-07T09:30:48.053Z,23.10
2018-05-07T09:33:14.267Z,23.00
2018-05-07T09:35:41.308Z,22.10
2018-05-07T09:38:08.114Z,22.10
2018-05-07T09:40:34.357Z,22.20
2018-05-07T09:43:01.264Z,21.10
2018-05-07T09:45:28.206Z,23.90
2018-05-07T09:47:54.493Z,23.80
2018-05-07T09:50:20.765Z,23.10
2018-05-07T09:52:46.987Z,22.40
2018-05-07T09:55:15.706Z,22.40
2018-05-07T09:57:55.548Z,22.40
2018-05-07T10:00:21.833Z,22.40
2018-05-07T10:02:48.958Z,22.80
2018-05-07T10:05:15.272Z,22.70
2018-05-07T10:07:41.608Z,22.40
2018-05-07T10:10:07.848Z,23.30
2018-05-07T10:12:34.065Z,22.50
2018-05-07T10:15:01.172Z,22.20
2018-05-07T10:17:28.292Z,23.00
2018-05-07T10:19:55.268Z,22.20
2018-05-07T10:22:21.525Z,22.10
2018-05-07T10:24:47.735Z,20.80
2018-05-07T10:27:13.994Z,20.10
2018-05-07T10:29:41.132Z,22.00
2018-05-07T10:32:07.686Z,22.00
2018-05-07T10:34:34.973Z,22.20
2018-05-07T10:37:02.043Z,22.20
2018-05-07T10:39:28.340Z,22.10
2018-05-07T10:41:55.330Z,23.40
2018-05-07T10:44:21.628Z,23.30
2018-05-07T10:46:47.829Z,23.10
2018-05-07T10:49:14.884Z,25.10
2018-05-07T10:51:41.837Z,24.50
2018-05-07T10:54:08.836Z,24.40
2018-05-07T10:56:35.290Z,24.40
2018-05-07T10:59:01.652Z,24.40
2018-05-07T11:01:28.603Z,26.20
2018-05-07T11:03:54.915Z,26.10
2018-05-07T11:06:21.145Z,24.40
2018-05-07T11:08:48.194Z,25.80
2018-05-07T11:11:14.364Z,25.80
2018-05-07T11:13:40.892Z,25.80
2018-05-07T11:16:07.092Z,25.80
2018-05-07T11:18:33.336Z,25.80
2018-05-07T11:21:00.484Z,26.90
2018-05-07T11:23:26.755Z,27.00
2018-05-07T11:25:52.965Z,26.50
2018-05-07T11:28:19.284Z,25.50
2018-05-07T11:30:45.761Z,26.10
2018-05-07T11:33:12.038Z,26.50
2018-05-07T11:35:38.348Z,24.60
2018-05-07T11:38:04.540Z,26.40
2018-05-07T11:40:32.801Z,27.20
2018-05-07T11:42:59.029Z,27.00
2018-05-07T11:45:25.260Z,28.30
2018-05-07T11:47:52.257Z,26.50
2018-05-07T11:50:18.712Z,26.50
2018-05-07T11:52:45.094Z,26.90
2018-05-07T11:55:12.118Z,28.30
2018-05-07T11:57:38.336Z,28.30
2018-05-07T12:00:04.559Z,27.80
2018-05-07T12:02:30.953Z,27.80
2018-05-07T12:04:57.096Z,27.30
2018-05-07T12:07:25.684Z,27.90
2018-05-07T12:09:52.356Z,27.80
2018-05-07T12:12:19.632Z,27.30
2018-05-07T12:14:45.940Z,27.20
2018-05-07T12:17:12.150Z,27.50
2018-05-07T12:19:38.389Z,27.20
2018-05-07T12:22:06.134Z,27.10
2018-05-07T12:24:32.396Z,27.00
2018-05-07T12:27:00.106Z,29.70
2018-05-07T12:29:26.354Z,29.70
2018-05-07T12:31:52.884Z,30.20
2018-05-07T12:34:19.073Z,30.50
2018-05-07T12:36:45.347Z,30.50
2018-05-07T12:39:11.556Z,30.30
2018-05-07T12:41:37.804Z,30.80
2018-05-07T12:44:04.032Z,30.00
2018-05-07T12:46:30.260Z,29.90
2018-05-07T12:48:56.538Z,30.60
2018-05-07T12:51:22.816Z,30.30
2018-05-07T12:53:49.042Z,30.70
2018-05-07T12:56:15.270Z,31.50
2018-05-07T12:58:41.520Z,31.50
2018-05-07T13:01:07.756Z,32.40
2018-05-07T13:03:34.770Z,30.80
2018-05-07T13:06:01.116Z,30.70
2018-05-07T13:08:27.399Z,31.20
2018-05-07T13:10:53.724Z,31.80
2018-05-07T13:13:19.989Z,31.80
2018-05-07T13:15:46.241Z,31.90
2018-05-07T13:18:12.461Z,31.30
2018-05-07T13:20:38.729Z,31.90
2018-05-07T13:23:05.697Z,31.80
2018-05-07T13:25:31.948Z,31.80
2018-05-07T13:27:58.209Z,31.60
2018-05-07T13:30:24.420Z,31.40
2018-05-07T13:32:50.608Z,31.20
2018-05-07T13:35:16.846Z,31.20
2018-05-07T13:37:43.058Z,30.90
2018-05-07T13:40:09.282Z,31.80
2018-05-07T13:42:35.572Z,31.40
2018-05-07T13:45:02.616Z,31.60
2018-05-07T13:47:28.842Z,31.50
2018-05-07T13:49:55.048Z,32.00
2018-05-07T13:52:21.320Z,31.90
2018-05-07T13:54:47.537Z,31.60
2018-05-07T13:57:14.519Z,30.90
2018-05-07T13:59:40.812Z,30.90
2018-05-07T14:02:07.097Z,31.40
2018-05-07T14:04:33.586Z,31.10
2018-05-07T14:06:59.834Z,31.10
2018-05-07T14:09:26.059Z,31.70
2018-05-07T14:11:52.279Z,31.80
2018-05-07T14:14:20.026Z,31.80
2018-05-07T14:16:47.056Z,31.20
2018-05-07T14:19:13.334Z,31.70
2018-05-07T14:21:39.609Z,30.30
2018-05-07T14:24:05.850Z,30.70
2018-05-07T14:26:32.814Z,34.00
2018-05-07T14:28:59.039Z,33.90
2018-05-07T14:31:26.012Z,31.40
2018-05-07T14:33:52.214Z,31.30
2018-05-07T14:36:18.490Z,31.70
2018-05-07T14:38:44.876Z,32.70
2018-05-07T14:41:11.181Z,32.70
2018-05-07T14:43:38.176Z,29.70
2018-05-07T14:46:04.422Z,29.60
2018-05-07T14:48:30.663Z,30.30
2018-05-07T14:50:56.941Z,29.30
2018-05-07T14:53:23.222Z,29.10
2018-05-07T14:55:51.063Z,29.70
2018-05-07T14:58:17.278Z,29.70
2018-05-07T15:00:43.524Z,30.50
2018-05-07T15:03:09.805Z,32.00
2018-05-07T15:05:36.807Z,32.20
2018-05-07T15:08:03.056Z,32.10
2018-05-07T15:10:29.300Z,31.90
2018-05-07T15:12:55.527Z,31.90
2018-05-07T15:15:22.564Z,32.10
2018-05-07T15:17:49.123Z,32.00
2018-05-07T15:20:15.423Z,31.40
2018-05-07T15:22:41.643Z,33.10
2018-05-07T15:25:07.889Z,32.60
2018-05-07T15:27:34.890Z,32.10
2018-05-07T15:30:01.154Z,32.20
2018-05-07T15:32:27.387Z,33.40
2018-05-07T15:34:54.376Z,33.50
2018-05-07T15:37:20.750Z,33.40
2018-05-07T15:39:46.949Z,33.30
2018-05-07T15:42:13.199Z,33.40
2018-05-07T15:44:39.470Z,33.70
2018-05-07T15:47:05.721Z,34.00
2018-05-07T15:49:31.981Z,33.30
2018-05-07T15:51:58.288Z,33.60
2018-05-07T15:54:24.688Z,34.00
2018-05-07T15:56:53.115Z,34.60
2018-05-07T15:59:19.411Z,34.90
2018-05-07T16:01:45.694Z,34.80
2018-05-07T16:04:11.943Z,34.80
2018-05-07T16:06:39.063Z,35.00
2018-05-07T16:09:05.299Z,35.00
2018-05-07T16:11:31.717Z,35.00
2018-05-07T16:13:58.802Z,34.40
2018-05-07T16:16:25.116Z,34.30
2018-05-07T16:18:52.188Z,33.80
2018-05-07T16:21:18.458Z,33.80
2018-05-07T16:23:45.431Z,35.00
2018-05-07T16:26:11.870Z,34.40
2018-05-07T16:28:38.912Z,33.50
2018-05-07T16:31:06.123Z,33.50
2018-05-07T16:33:33.126Z,33.80
2018-05-07T16:36:00.269Z,34.20
2018-05-07T16:38:27.296Z,34.20
2018-05-07T16:40:53.545Z,34.70
2018-05-07T16:43:20.610Z,34.40
2018-05-07T16:45:46.917Z,34.30
2018-05-07T16:48:13.213Z,34.70
2018-05-07T16:50:41.774Z,34.00
2018-05-07T16:53:08.193Z,33.70
2018-05-07T16:55:34.480Z,34.60
2018-05-07T16:58:01.534Z,34.10
2018-05-07T17:00:27.756Z,34.10
2018-05-07T17:02:53.988Z,34.10
2018-05-07T17:05:20.211Z,32.80
2018-05-07T17:07:46.475Z,33.40
2018-05-07T17:10:12.801Z,33.70
2018-05-07T17:12:39.122Z,33.90
2018-05-07T17:15:05.453Z,34.10
2018-05-07T17:17:32.452Z,34.60
2018-05-07T17:19:58.704Z,34.50
2018-05-07T17:22:25.717Z,34.60
2018-05-07T17:24:51.980Z,33.80
2018-05-07T17:27:18.206Z,34.00
2018-05-07T17:29:44.476Z,34.30
2018-05-07T17:32:12.414Z,34.40
2018-05-07T17:34:38.771Z,34.60
2018-05-07T17:37:05.085Z,34.10
2018-05-07T17:39:31.355Z,33.90
2018-05-07T17:41:57.636Z,34.30
2018-05-07T17:44:36.722Z,35.00
2018-05-07T17:47:15.263Z,35.00
2018-05-07T17:49:41.624Z,34.00
2018-05-07T17:52:08.680Z,34.40
2018-05-07T17:54:35.028Z,34.40
2018-05-07T17:57:01.297Z,34.20
2018-05-07T17:59:27.490Z,34.90
2018-05-07T18:01:53.745Z,34.90
2018-05-07T18:04:20.904Z,35.20
2018-05-07T18:06:47.984Z,34.80
2018-05-07T18:09:14.270Z,34.80
2018-05-07T18:11:40.477Z,35.70
2018-05-07T18:14:06.772Z,36.50
2018-05-07T18:16:33.082Z,35.50
2018-05-07T18:19:00.117Z,36.20
2018-05-07T18:21:26.352Z,36.20
2018-05-07T18:23:53.045Z,38.30
2018-05-07T18:26:19.322Z,37.20
2018-05-07T18:28:45.634Z,38.30
2018-05-07T18:31:11.891Z,36.20
2018-05-07T18:33:38.136Z,38.10
2018-05-07T18:36:04.442Z,36.50
2018-05-07T18:38:31.557Z,36.70
2018-05-07T18:41:02.340Z,37.50
2018-05-07T18:43:29.958Z,37.30
2018-05-07T18:45:57.123Z,37.00
2018-05-07T18:48:23.592Z,40.30
2018-05-07T18:50:50.845Z,37.80
2018-05-07T18:53:17.118Z,37.70
2018-05-07T18:55:43.383Z,37.70
2018-05-07T18:58:10.357Z,39.10
2018-05-07T19:00:36.738Z,39.00
2018-05-07T19:03:03.010Z,39.40
2018-05-07T19:05:33.713Z,38.60
2018-05-07T19:08:02.597Z,39.50
2018-05-07T19:10:32.650Z,39.80
2018-05-07T19:13:02.939Z,41.10
2018-05-07T19:15:30.149Z,39.30
2018-05-07T19:17:56.641Z,39.40
2018-05-07T19:20:23.396Z,39.60
2018-05-07T19:22:49.725Z,40.70
2018-05-07T19:25:16.033Z,40.10
2018-05-07T19:27:42.344Z,40.50
2018-05-07T19:30:09.369Z,44.30
2018-05-07T19:32:35.810Z,44.00
2018-05-07T19:35:02.193Z,43.40
2018-05-07T19:37:28.472Z,42.50
2018-05-07T19:39:54.840Z,44.30
2018-05-07T19:42:21.221Z,44.50
2018-05-07T19:44:47.601Z,45.30
2018-05-07T19:47:13.892Z,45.70
2018-05-07T19:49:40.870Z,45.90
2018-05-07T19:52:07.189Z,46.00
2018-05-07T19:54:34.257Z,46.70
2018-05-07T19:57:00.518Z,46.70
2018-05-07T19:59:26.758Z,47.20
2018-05-07T20:01:53.721Z,47.70
2018-05-07T20:04:21.464Z,46.40
2018-05-07T20:06:47.704Z,46.40
2018-05-07T20:09:14.029Z,47.00
2018-05-07T20:11:41.089Z,45.50
2018-05-07T20:14:07.669Z,45.50
2018-05-07T20:16:37.517Z,44.50
2018-05-07T20:19:04.359Z,45.00
2018-05-07T20:21:30.651Z,44.90
2018-05-07T20:23:57.105Z,45.30
2018-05-07T20:26:23.381Z,44.70
2018-05-07T20:28:49.703Z,44.50
2018-05-07T20:31:15.978Z,44.60
2018-05-07T20:33:42.293Z,44.10
2018-05-07T20:36:08.548Z,44.20
2018-05-07T20:38:35.724Z,44.80
2018-05-07T20:41:01.947Z,43.80
2018-05-07T20:43:28.192Z,45.00
2018-05-07T20:45:54.445Z,44.40
2018-05-07T20:48:21.535Z,45.20
2018-05-07T20:50:47.886Z,45.10
2018-05-07T20:53:15.268Z,44.40
2018-05-07T20:55:43.625Z,44.40
2018-05-07T20:58:10.352Z,44.30
2018-05-07T21:00:36.607Z,43.30
2018-05-07T21:03:02.888Z,43.50
2018-05-07T21:05:29.918Z,44.10
2018-05-07T21:07:56.213Z,43.50
2018-05-07T21:10:22.494Z,43.00
2018-05-07T21:12:49.613Z,42.40
2018-05-07T21:15:15.940Z,42.40
2018-05-07T21:17:42.323Z,43.10
2018-05-07T21:20:08.633Z,42.70
2018-05-07T21:22:34.914Z,43.50
2018-05-07T21:25:01.937Z,44.90
2018-05-07T21:27:28.217Z,44.80
2018-05-07T21:29:54.535Z,44.60
2018-05-07T21:32:21.030Z,44.50
2018-05-07T21:34:48.255Z,44.70
2018-05-07T21:37:15.512Z,45.90
2018-05-07T21:39:41.729Z,45.80
2018-05-07T21:42:07.968Z,47.40
2018-05-07T21:44:34.184Z,46.80
2018-05-07T21:47:00.713Z,47.50
2018-05-07T21:49:29.188Z,44.60
2018-05-07T21:51:55.401Z,44.50
2018-05-07T21:54:21.659Z,46.00
2018-05-07T21:56:47.973Z,45.20
2018-05-07T21:59:14.275Z,44.70
2018-05-07T22:01:41.232Z,44.10
2018-05-07T22:04:07.482Z,44.00
2018-05-07T22:06:33.724Z,43.80
2018-05-07T22:09:01.040Z,44.10
2018-05-07T22:11:28.050Z,44.30
2018-05-07T22:13:57.198Z,43.90
2018-05-07T22:16:23.460Z,43.80
2018-05-07T22:18:49.692Z,43.60
2018-05-07T22:21:15.955Z,43.80
2018-05-07T22:23:42.917Z,44.00
2018-05-07T22:26:09.224Z,44.00
2018-05-07T22:28:35.397Z,43.80
2018-05-07T22:31:01.736Z,43.80
2018-05-07T22:33:28.773Z,44.10
2018-05-07T22:35:55.018Z,44.10
2018-05-07T22:38:21.265Z,44.40
2018-05-07T22:40:47.552Z,44.40
2018-05-07T22:43:13.776Z,44.30
2018-05-07T22:45:39.992Z,44.10
2018-05-07T22:48:06.356Z,44.70
2018-05-07T22:50:33.021Z,44.80
2018-05-07T22:53:00.010Z,45.00
2018-05-07T22:55:26.262Z,44.90
2018-05-07T22:57:52.524Z,45.20
2018-05-07T23:00:21.017Z,44.90
2018-05-07T23:02:47.280Z,44.90
2018-05-07T23:05:13.520Z,44.90
2018-05-07T23:07:39.876Z,45.20
2018-05-07T23:10:06.966Z,45.10
2018-05-07T23:12:33.207Z,45.10
2018-05-07T23:14:59.455Z,46.20
2018-05-07T23:17:25.689Z,46.50
2018-05-07T23:19:51.918Z,47.30
2018-05-07T23:22:18.154Z,47.90
2018-05-07T23:24:44.394Z,48.20
2018-05-07T23:27:10.743Z,48.60
2018-05-07T23:29:38.453Z,47.00
2018-05-07T23:32:04.692Z,47.00
2018-05-07T23:34:31.197Z,48.60
2018-05-07T23:36:57.416Z,47.70
2018-05-07T23:39:23.640Z,47.30
2018-05-07T23:41:49.877Z,47.00
2018-05-07T23:44:16.152Z,48.60
2018-05-07T23:46:42.447Z,47.30
2018-05-07T23:49:08.718Z,47.30
2018-05-07T23:51:34.938Z,48.80
2018-05-07T23:54:01.145Z,49.60
2018-05-07T23:56:27.372Z,50.20
2018-05-07T23:58:53.604Z,51.90
